Live from Altenrhein
LIVE
LSZR 242050Z AUTO 23002KT 9999 FEW048 08/07 Q1015

People´s C-Office:

T: +41 (0)71 858 51 65

E: c-office@peoples.ch

Airport Information

Facts and Figures.

Communications

  • TWR / VDF: 135.425 MHz (ALTN 119.7 MHz)
  • GND: 121.80MHz
  • ATIS: 123.775 MHz / +41 71 858 51 66
  • HDL: 131.50


Runway Specifications

  • Concrete surface, ribbed and lit
  • RWY 10 is equipped with an instrument landing system ILS/DME Cat. 1
  • Carrying capacity PCN 30 F/C/Y/T ASPH
  • Runway 10/28, length: 1455 metres (0.93 miles) / width: 30 metres (33 yards)

Instrument Flights (IFR)

All times are local. Special allowances from 06.00 - 22.00 o'clock upon request.

Mon – Fri 06:30 am – 12:00 pm 13:30 pm – 21:00 pm
Sat 07:30 am – 12:00 pm 13:30 pm – 20:00 pm
Sun 10:00 am – 12:00 pm 13:30 pm – 20:00 pm

Visual Flights (VFR)

All times are local. No special allowances possible.

Mon – Fri 07:00 am – 12:00 Uhr 13:30 pm – 20:00 pm
Sat 08:00 am – 12:00 Uhr 13:30 pm– 20:00 pm
Sun 10:00 am – 12:00 Uhr 13:30 pm – 20:00 pm





    

The airport is closed on the following days:

   

1. January

Easter Sunday

Whitsunday

25. December